sensor_id;sensor_type;location;lat;lon;timestamp;temperature;humidity
80238;DHT22;69544;42.138;24.742;2023-05-10T00:02:11;22.10;38.00
80238;DHT22;69544;42.138;24.742;2023-05-10T00:04:37;22.10;38.00
80238;DHT22;69544;42.138;24.742;2023-05-10T00:07:03;22.10;38.00
80238;DHT22;69544;42.138;24.742;2023-05-10T00:09:28;22.10;38.00
80238;DHT22;69544;42.138;24.742;2023-05-10T00:11:54;22.10;38.00
80238;DHT22;69544;42.138;24.742;2023-05-10T00:14:20;22.10;38.00
80238;DHT22;69544;42.138;24.742;2023-05-10T00:16:45;22.10;38.00
80238;DHT22;69544;42.138;24.742;2023-05-10T00:19:11;22.10;38.00
80238;DHT22;69544;42.138;24.742;2023-05-10T00:21:37;22.10;38.00
80238;DHT22;69544;42.138;24.742;2023-05-10T00:24:03;22.10;38.00
80238;DHT22;69544;42.138;24.742;2023-05-10T00:26:28;22.10;38.10
80238;DHT22;69544;42.138;24.742;2023-05-10T00:28:54;22.10;38.10
80238;DHT22;69544;42.138;24.742;2023-05-10T00:31:20;22.10;39.10
80238;DHT22;69544;42.138;24.742;2023-05-10T00:33:45;22.10;38.10
80238;DHT22;69544;42.138;24.742;2023-05-10T00:36:11;22.00;38.00
80238;DHT22;69544;42.138;24.742;2023-05-10T00:38:37;22.00;38.00
80238;DHT22;69544;42.138;24.742;2023-05-10T00:41:03;22.00;39.00
80238;DHT22;69544;42.138;24.742;2023-05-10T00:43:29;22.00;37.90
80238;DHT22;69544;42.138;24.742;2023-05-10T00:45:55;22.00;37.90
80238;DHT22;69544;42.138;24.742;2023-05-10T00:48:21;22.10;38.00
80238;DHT22;69544;42.138;24.742;2023-05-10T00:50:47;22.00;37.90
80238;DHT22;69544;42.138;24.742;2023-05-10T00:53:14;22.00;37.90
80238;DHT22;69544;42.138;24.742;2023-05-10T00:55:40;22.00;37.90
80238;DHT22;69544;42.138;24.742;2023-05-10T00:58:06;22.00;37.90
80238;DHT22;69544;42.138;24.742;2023-05-10T01:00:33;22.00;37.90
80238;DHT22;69544;42.138;24.742;2023-05-10T01:02:59;22.00;38.00
80238;DHT22;69544;42.138;24.742;2023-05-10T01:05:25;22.00;38.00
80238;DHT22;69544;42.138;24.742;2023-05-10T01:07:52;22.00;37.90
80238;DHT22;69544;42.138;24.742;2023-05-10T01:10:18;22.00;37.90
80238;DHT22;69544;42.138;24.742;2023-05-10T01:12:45;22.00;37.90
80238;DHT22;69544;42.138;24.742;2023-05-10T01:15:12;22.00;37.90
80238;DHT22;69544;42.138;24.742;2023-05-10T01:17:40;22.00;37.80
80238;DHT22;69544;42.138;24.742;2023-05-10T01:20:09;22.00;37.80
80238;DHT22;69544;42.138;24.742;2023-05-10T01:33:55;22.00;38.00
80238;DHT22;69544;42.138;24.742;2023-05-10T01:36:45;22.00;37.90
80238;DHT22;69544;42.138;24.742;2023-05-10T01:42:42;22.00;38.00
80238;DHT22;69544;42.138;24.742;2023-05-10T01:45:06;21.90;38.00
80238;DHT22;69544;42.138;24.742;2023-05-10T01:47:42;21.90;38.00
80238;DHT22;69544;42.138;24.742;2023-05-10T01:50:19;21.90;38.00
80238;DHT22;69544;42.138;24.742;2023-05-10T01:52:51;21.90;37.90
80238;DHT22;69544;42.138;24.742;2023-05-10T01:55:19;21.90;38.00
80238;DHT22;69544;42.138;24.742;2023-05-10T01:57:48;21.90;38.00
80238;DHT22;69544;42.138;24.742;2023-05-10T02:00:17;21.90;37.90
80238;DHT22;69544;42.138;24.742;2023-05-10T02:02:48;21.90;37.90
80238;DHT22;69544;42.138;24.742;2023-05-10T02:05:16;21.90;37.90
80238;DHT22;69544;42.138;24.742;2023-05-10T02:07:43;21.90;37.90
80238;DHT22;69544;42.138;24.742;2023-05-10T02:10:10;21.90;38.00
80238;DHT22;69544;42.138;24.742;2023-05-10T02:12:39;21.90;37.90
80238;DHT22;69544;42.138;24.742;2023-05-10T02:15:07;21.90;37.90
80238;DHT22;69544;42.138;24.742;2023-05-10T02:17:35;21.90;37.90
80238;DHT22;69544;42.138;24.742;2023-05-10T02:20:02;21.90;37.90
80238;DHT22;69544;42.138;24.742;2023-05-10T02:22:29;21.90;37.90
80238;DHT22;69544;42.138;24.742;2023-05-10T02:24:56;21.90;37.90
80238;DHT22;69544;42.138;24.742;2023-05-10T02:27:23;21.90;37.90
80238;DHT22;69544;42.138;24.742;2023-05-10T02:29:50;21.90;37.90
80238;DHT22;69544;42.138;24.742;2023-05-10T02:32:17;21.90;37.90
80238;DHT22;69544;42.138;24.742;2023-05-10T02:34:44;21.90;37.80
80238;DHT22;69544;42.138;24.742;2023-05-10T02:37:13;21.90;37.90
80238;DHT22;69544;42.138;24.742;2023-05-10T02:39:40;21.90;37.80
80238;DHT22;69544;42.138;24.742;2023-05-10T02:42:14;21.90;37.80
80238;DHT22;69544;42.138;24.742;2023-05-10T02:44:42;21.90;37.80
80238;DHT22;69544;42.138;24.742;2023-05-10T02:47:10;21.90;37.80
80238;DHT22;69544;42.138;24.742;2023-05-10T02:49:36;21.90;37.80
80238;DHT22;69544;42.138;24.742;2023-05-10T02:52:05;21.90;37.70
80238;DHT22;69544;42.138;24.742;2023-05-10T02:54:37;21.90;37.80
80238;DHT22;69544;42.138;24.742;2023-05-10T02:57:05;21.90;37.80
80238;DHT22;69544;42.138;24.742;2023-05-10T02:59:32;21.90;37.90
80238;DHT22;69544;42.138;24.742;2023-05-10T03:01:59;21.90;37.80
80238;DHT22;69544;42.138;24.742;2023-05-10T03:04:25;21.90;37.90
80238;DHT22;69544;42.138;24.742;2023-05-10T03:06:51;21.90;37.90
80238;DHT22;69544;42.138;24.742;2023-05-10T03:09:18;21.90;37.90
80238;DHT22;69544;42.138;24.742;2023-05-10T03:12:05;21.90;37.80
80238;DHT22;69544;42.138;24.742;2023-05-10T03:15:11;21.90;37.80
80238;DHT22;69544;42.138;24.742;2023-05-10T03:20:29;21.80;37.90
80238;DHT22;69544;42.138;24.742;2023-05-10T03:23:04;21.80;37.80
80238;DHT22;69544;42.138;24.742;2023-05-10T03:25:31;21.80;37.80
80238;DHT22;69544;42.138;24.742;2023-05-10T03:27:58;21.80;37.90
80238;DHT22;69544;42.138;24.742;2023-05-10T03:30:25;21.80;37.80
80238;DHT22;69544;42.138;24.742;2023-05-10T03:32:51;21.80;37.90
80238;DHT22;69544;42.138;24.742;2023-05-10T03:35:17;21.80;37.80
80238;DHT22;69544;42.138;24.742;2023-05-10T03:37:42;21.80;37.80
80238;DHT22;69544;42.138;24.742;2023-05-10T03:40:10;21.80;37.80
80238;DHT22;69544;42.138;24.742;2023-05-10T03:42:36;21.80;37.80
80238;DHT22;69544;42.138;24.742;2023-05-10T03:45:01;21.80;37.80
80238;DHT22;69544;42.138;24.742;2023-05-10T03:47:27;21.80;37.80
80238;DHT22;69544;42.138;24.742;2023-05-10T03:49:53;21.80;37.70
80238;DHT22;69544;42.138;24.742;2023-05-10T03:52:18;21.80;37.80
80238;DHT22;69544;42.138;24.742;2023-05-10T03:54:44;21.80;37.80
80238;DHT22;69544;42.138;24.742;2023-05-10T03:57:10;21.80;37.70
80238;DHT22;69544;42.138;24.742;2023-05-10T03:59:35;21.80;37.70
80238;DHT22;69544;42.138;24.742;2023-05-10T04:02:01;21.80;37.80
80238;DHT22;69544;42.138;24.742;2023-05-10T04:04:27;21.80;37.80
80238;DHT22;69544;42.138;24.742;2023-05-10T04:06:52;21.80;37.80
80238;DHT22;69544;42.138;24.742;2023-05-10T04:09:18;21.80;37.80
80238;DHT22;69544;42.138;24.742;2023-05-10T04:11:44;21.80;37.80
80238;DHT22;69544;42.138;24.742;2023-05-10T04:14:09;21.80;37.40
80238;DHT22;69544;42.138;24.742;2023-05-10T04:16:35;21.60;37.10
80238;DHT22;69544;42.138;24.742;2023-05-10T04:19:01;21.30;37.50
80238;DHT22;69544;42.138;24.742;2023-05-10T04:21:26;21.20;37.30
80238;DHT22;69544;42.138;24.742;2023-05-10T04:23:52;21.20;37.10
80238;DHT22;69544;42.138;24.742;2023-05-10T04:26:18;21.20;37.20
80238;DHT22;69544;42.138;24.742;2023-05-10T04:28:43;21.10;37.30
80238;DHT22;69544;42.138;24.742;2023-05-10T04:31:10;21.00;37.50
80238;DHT22;69544;42.138;24.742;2023-05-10T04:33:36;20.90;37.80
80238;DHT22;69544;42.138;24.742;2023-05-10T04:36:02;20.80;37.60
80238;DHT22;69544;42.138;24.742;2023-05-10T04:38:28;20.70;37.90
80238;DHT22;69544;42.138;24.742;2023-05-10T04:40:54;20.60;38.00
80238;DHT22;69544;42.138;24.742;2023-05-10T04:43:28;20.60;38.10
80238;DHT22;69544;42.138;24.742;2023-05-10T04:45:56;20.50;38.30
80238;DHT22;69544;42.138;24.742;2023-05-10T04:48:22;20.40;38.40
80238;DHT22;69544;42.138;24.742;2023-05-10T04:50:47;20.30;38.70
80238;DHT22;69544;42.138;24.742;2023-05-10T04:53:13;20.30;38.50
80238;DHT22;69544;42.138;24.742;2023-05-10T04:55:39;20.30;38.60
80238;DHT22;69544;42.138;24.742;2023-05-10T04:58:04;20.20;38.50
80238;DHT22;69544;42.138;24.742;2023-05-10T05:00:30;20.20;38.70
80238;DHT22;69544;42.138;24.742;2023-05-10T05:02:56;20.10;39.30
80238;DHT22;69544;42.138;24.742;2023-05-10T05:05:21;20.00;40.40
80238;DHT22;69544;42.138;24.742;2023-05-10T05:07:47;20.00;41.20
80238;DHT22;69544;42.138;24.742;2023-05-10T05:10:13;19.90;41.40
80238;DHT22;69544;42.138;24.742;2023-05-10T05:12:38;19.90;41.70
80238;DHT22;69544;42.138;24.742;2023-05-10T05:15:04;19.90;41.90
80238;DHT22;69544;42.138;24.742;2023-05-10T05:17:30;19.90;41.70
80238;DHT22;69544;42.138;24.742;2023-05-10T05:19:56;19.80;41.50
80238;DHT22;69544;42.138;24.742;2023-05-10T05:22:22;19.90;41.10
80238;DHT22;69544;42.138;24.742;2023-05-10T05:24:57;19.80;40.90
80238;DHT22;69544;42.138;24.742;2023-05-10T05:27:24;19.90;40.40
80238;DHT22;69544;42.138;24.742;2023-05-10T05:29:55;19.80;40.30
80238;DHT22;69544;42.138;24.742;2023-05-10T05:32:21;19.80;40.00
80238;DHT22;69544;42.138;24.742;2023-05-10T05:34:47;19.70;40.20
80238;DHT22;69544;42.138;24.742;2023-05-10T05:37:17;19.70;40.00
80238;DHT22;69544;42.138;24.742;2023-05-10T05:39:44;19.80;39.80
80238;DHT22;69544;42.138;24.742;2023-05-10T05:42:10;19.90;39.90
80238;DHT22;69544;42.138;24.742;2023-05-10T05:44:36;20.10;39.70
80238;DHT22;69544;42.138;24.742;2023-05-10T05:47:01;20.20;39.80
80238;DHT22;69544;42.138;24.742;2023-05-10T05:49:27;20.30;39.80
80238;DHT22;69544;42.138;24.742;2023-05-10T05:51:53;20.30;39.70
80238;DHT22;69544;42.138;24.742;2023-05-10T05:54:19;20.40;39.40
80238;DHT22;69544;42.138;24.742;2023-05-10T05:56:44;20.50;39.30
80238;DHT22;69544;42.138;24.742;2023-05-10T05:59:11;20.60;39.20
80238;DHT22;69544;42.138;24.742;2023-05-10T06:01:37;20.60;39.00
80238;DHT22;69544;42.138;24.742;2023-05-10T06:04:02;20.70;38.90
80238;DHT22;69544;42.138;24.742;2023-05-10T06:06:28;20.80;38.80
80238;DHT22;69544;42.138;24.742;2023-05-10T06:08:54;20.80;38.70
80238;DHT22;69544;42.138;24.742;2023-05-10T06:11:20;20.90;38.60
80238;DHT22;69544;42.138;24.742;2023-05-10T06:13:47;20.90;38.50
80238;DHT22;69544;42.138;24.742;2023-05-10T06:16:12;20.90;38.30
80238;DHT22;69544;42.138;24.742;2023-05-10T06:18:39;21.00;38.30
80238;DHT22;69544;42.138;24.742;2023-05-10T06:21:04;21.00;38.20
80238;DHT22;69544;42.138;24.742;2023-05-10T06:23:30;21.00;38.20
80238;DHT22;69544;42.138;24.742;2023-05-10T06:25:56;21.10;38.10
80238;DHT22;69544;42.138;24.742;2023-05-10T06:28:22;21.10;38.10
80238;DHT22;69544;42.138;24.742;2023-05-10T06:30:47;21.10;38.00
80238;DHT22;69544;42.138;24.742;2023-05-10T06:33:13;21.20;38.00
80238;DHT22;69544;42.138;24.742;2023-05-10T06:35:39;21.20;37.90
80238;DHT22;69544;42.138;24.742;2023-05-10T06:38:04;21.20;37.90
80238;DHT22;69544;42.138;24.742;2023-05-10T06:40:30;21.20;37.80
80238;DHT22;69544;42.138;24.742;2023-05-10T06:42:56;21.30;37.90
80238;DHT22;69544;42.138;24.742;2023-05-10T06:45:21;21.30;37.80
80238;DHT22;69544;42.138;24.742;2023-05-10T06:47:47;21.30;37.70
80238;DHT22;69544;42.138;24.742;2023-05-10T06:50:13;21.30;37.70
80238;DHT22;69544;42.138;24.742;2023-05-10T06:52:39;21.40;37.70
80238;DHT22;69544;42.138;24.742;2023-05-10T06:55:05;21.40;37.70
80238;DHT22;69544;42.138;24.742;2023-05-10T06:57:31;21.40;37.60
80238;DHT22;69544;42.138;24.742;2023-05-10T07:00:00;21.40;37.60
80238;DHT22;69544;42.138;24.742;2023-05-10T07:02:26;21.40;37.60
80238;DHT22;69544;42.138;24.742;2023-05-10T07:04:52;21.40;37.60
80238;DHT22;69544;42.138;24.742;2023-05-10T07:07:18;21.40;37.60
80238;DHT22;69544;42.138;24.742;2023-05-10T07:09:44;21.50;37.60
80238;DHT22;69544;42.138;24.742;2023-05-10T07:12:10;21.50;37.60
80238;DHT22;69544;42.138;24.742;2023-05-10T07:14:35;21.50;37.60
80238;DHT22;69544;42.138;24.742;2023-05-10T07:17:01;21.50;37.40
80238;DHT22;69544;42.138;24.742;2023-05-10T07:19:27;21.50;37.40
80238;DHT22;69544;42.138;24.742;2023-05-10T07:21:54;21.50;37.40
80238;DHT22;69544;42.138;24.742;2023-05-10T07:24:20;21.50;37.40
80238;DHT22;69544;42.138;24.742;2023-05-10T07:26:47;21.50;37.40
80238;DHT22;69544;42.138;24.742;2023-05-10T07:29:13;21.60;37.40
80238;DHT22;69544;42.138;24.742;2023-05-10T07:31:38;21.60;37.40
80238;DHT22;69544;42.138;24.742;2023-05-10T07:34:04;21.50;37.40
80238;DHT22;69544;42.138;24.742;2023-05-10T07:36:30;21.60;37.40
80238;DHT22;69544;42.138;24.742;2023-05-10T07:38:56;21.50;37.20
80238;DHT22;69544;42.138;24.742;2023-05-10T07:41:22;21.60;37.30
80238;DHT22;69544;42.138;24.742;2023-05-10T07:43:48;21.60;37.30
80238;DHT22;69544;42.138;24.742;2023-05-10T07:46:14;21.60;37.20
80238;DHT22;69544;42.138;24.742;2023-05-10T07:48:39;21.60;37.20
80238;DHT22;69544;42.138;24.742;2023-05-10T07:51:05;21.60;37.20
80238;DHT22;69544;42.138;24.742;2023-05-10T07:53:32;21.60;37.20
80238;DHT22;69544;42.138;24.742;2023-05-10T07:55:58;21.70;37.10
80238;DHT22;69544;42.138;24.742;2023-05-10T07:58:24;21.70;37.10
80238;DHT22;69544;42.138;24.742;2023-05-10T08:00:50;21.70;37.10
80238;DHT22;69544;42.138;24.742;2023-05-10T08:03:16;21.70;37.10
80238;DHT22;69544;42.138;24.742;2023-05-10T08:05:42;21.80;37.00
80238;DHT22;69544;42.138;24.742;2023-05-10T08:08:08;21.80;37.00
80238;DHT22;69544;42.138;24.742;2023-05-10T08:10:34;21.80;37.00
80238;DHT22;69544;42.138;24.742;2023-05-10T08:13:00;21.80;37.40
80238;DHT22;69544;42.138;24.742;2023-05-10T08:15:25;21.80;37.40
80238;DHT22;69544;42.138;24.742;2023-05-10T08:17:52;21.80;37.40
80238;DHT22;69544;42.138;24.742;2023-05-10T08:20:18;21.90;37.50
80238;DHT22;69544;42.138;24.742;2023-05-10T08:22:47;21.90;37.60
80238;DHT22;69544;42.138;24.742;2023-05-10T08:25:12;22.00;37.70
80238;DHT22;69544;42.138;24.742;2023-05-10T08:27:38;22.10;37.80
80238;DHT22;69544;42.138;24.742;2023-05-10T08:30:04;22.10;37.80
80238;DHT22;69544;42.138;24.742;2023-05-10T08:32:30;22.20;37.70
80238;DHT22;69544;42.138;24.742;2023-05-10T08:34:56;22.20;37.60
80238;DHT22;69544;42.138;24.742;2023-05-10T08:37:25;22.30;37.50
80238;DHT22;69544;42.138;24.742;2023-05-10T08:39:51;22.30;37.50
80238;DHT22;69544;42.138;24.742;2023-05-10T08:42:19;22.30;37.60
80238;DHT22;69544;42.138;24.742;2023-05-10T08:44:48;22.30;37.60
80238;DHT22;69544;42.138;24.742;2023-05-10T08:47:16;22.30;37.50
80238;DHT22;69544;42.138;24.742;2023-05-10T08:49:45;22.40;37.50
80238;DHT22;69544;42.138;24.742;2023-05-10T08:52:15;22.40;37.50
80238;DHT22;69544;42.138;24.742;2023-05-10T08:54:42;22.50;37.60
80238;DHT22;69544;42.138;24.742;2023-05-10T08:57:08;22.60;37.60
80238;DHT22;69544;42.138;24.742;2023-05-10T08:59:34;22.60;37.60
80238;DHT22;69544;42.138;24.742;2023-05-10T09:02:00;22.60;37.60
80238;DHT22;69544;42.138;24.742;2023-05-10T09:04:27;22.60;37.50
80238;DHT22;69544;42.138;24.742;2023-05-10T09:06:53;22.60;37.50
80238;DHT22;69544;42.138;24.742;2023-05-10T09:09:20;22.60;37.50
80238;DHT22;69544;42.138;24.742;2023-05-10T09:11:46;22.60;37.50
80238;DHT22;69544;42.138;24.742;2023-05-10T09:14:12;22.60;37.50
80238;DHT22;69544;42.138;24.742;2023-05-10T09:16:39;22.60;37.60
80238;DHT22;69544;42.138;24.742;2023-05-10T09:19:05;22.60;37.70
80238;DHT22;69544;42.138;24.742;2023-05-10T09:21:35;22.60;37.70
80238;DHT22;69544;42.138;24.742;2023-05-10T09:24:04;22.60;37.90
80238;DHT22;69544;42.138;24.742;2023-05-10T09:26:30;22.60;37.90
80238;DHT22;69544;42.138;24.742;2023-05-10T09:29:00;22.50;37.90
80238;DHT22;69544;42.138;24.742;2023-05-10T09:31:50;22.50;37.80
80238;DHT22;69544;42.138;24.742;2023-05-10T09:34:31;22.60;37.70
80238;DHT22;69544;42.138;24.742;2023-05-10T09:36:59;22.50;37.60
80238;DHT22;69544;42.138;24.742;2023-05-10T09:39:38;22.50;37.60
80238;DHT22;69544;42.138;24.742;2023-05-10T09:42:09;22.50;37.60
80238;DHT22;69544;42.138;24.742;2023-05-10T09:44:35;22.40;37.50
80238;DHT22;69544;42.138;24.742;2023-05-10T09:47:02;22.40;37.50
80238;DHT22;69544;42.138;24.742;2023-05-10T09:49:28;22.50;37.60
80238;DHT22;69544;42.138;24.742;2023-05-10T09:52:20;22.40;37.40
80238;DHT22;69544;42.138;24.742;2023-05-10T09:54:53;22.50;37.40
80238;DHT22;69544;42.138;24.742;2023-05-10T09:57:23;22.40;37.40
80238;DHT22;69544;42.138;24.742;2023-05-10T09:59:49;22.50;37.40
80238;DHT22;69544;42.138;24.742;2023-05-10T10:02:16;22.40;37.30
80238;DHT22;69544;42.138;24.742;2023-05-10T10:04:42;22.50;37.20
80238;DHT22;69544;42.138;24.742;2023-05-10T10:07:08;22.40;37.20
80238;DHT22;69544;42.138;24.742;2023-05-10T10:09:34;22.50;37.20
80238;DHT22;69544;42.138;24.742;2023-05-10T10:12:02;22.40;37.20
80238;DHT22;69544;42.138;24.742;2023-05-10T10:14:28;22.50;37.20
80238;DHT22;69544;42.138;24.742;2023-05-10T10:16:55;22.40;37.10
80238;DHT22;69544;42.138;24.742;2023-05-10T10:19:21;22.50;37.20
80238;DHT22;69544;42.138;24.742;2023-05-10T10:21:49;22.50;37.00
80238;DHT22;69544;42.138;24.742;2023-05-10T10:24:15;22.50;37.00
80238;DHT22;69544;42.138;24.742;2023-05-10T10:26:42;22.50;36.90
80238;DHT22;69544;42.138;24.742;2023-05-10T10:32:19;22.50;36.80
80238;DHT22;69544;42.138;24.742;2023-05-10T10:34:47;22.60;36.80
80238;DHT22;69544;42.138;24.742;2023-05-10T10:37:13;22.60;36.80
80238;DHT22;69544;42.138;24.742;2023-05-10T10:39:39;22.60;36.80
80238;DHT22;69544;42.138;24.742;2023-05-10T10:42:05;22.60;36.70
80238;DHT22;69544;42.138;24.742;2023-05-10T10:44:35;22.60;36.70
80238;DHT22;69544;42.138;24.742;2023-05-10T10:49:51;22.60;36.60
80238;DHT22;69544;42.138;24.742;2023-05-10T10:57:53;22.60;36.50
80238;DHT22;69544;42.138;24.742;2023-05-10T11:00:28;22.60;36.50
80238;DHT22;69544;42.138;24.742;2023-05-10T11:03:05;22.70;36.50
80238;DHT22;69544;42.138;24.742;2023-05-10T11:05:37;22.60;36.50
80238;DHT22;69544;42.138;24.742;2023-05-10T11:13:28;22.70;36.30
80238;DHT22;69544;42.138;24.742;2023-05-10T11:15:55;22.80;36.20
80238;DHT22;69544;42.138;24.742;2023-05-10T11:18:31;22.70;36.10
80238;DHT22;69544;42.138;24.742;2023-05-10T11:20:59;22.70;36.10
80238;DHT22;69544;42.138;24.742;2023-05-10T11:23:32;22.70;36.10
80238;DHT22;69544;42.138;24.742;2023-05-10T11:25:59;22.70;36.10
80238;DHT22;69544;42.138;24.742;2023-05-10T11:28:27;22.80;36.20
80238;DHT22;69544;42.138;24.742;2023-05-10T11:30:54;22.70;36.20
80238;DHT22;69544;42.138;24.742;2023-05-10T11:33:21;22.80;36.10
80238;DHT22;69544;42.138;24.742;2023-05-10T11:35:47;22.80;36.00
80238;DHT22;69544;42.138;24.742;2023-05-10T11:38:13;22.80;36.00
80238;DHT22;69544;42.138;24.742;2023-05-10T11:40:40;22.90;35.90
80238;DHT22;69544;42.138;24.742;2023-05-10T11:43:06;22.90;35.80
80238;DHT22;69544;42.138;24.742;2023-05-10T11:45:34;23.00;35.70
80238;DHT22;69544;42.138;24.742;2023-05-10T11:48:01;23.00;35.60
80238;DHT22;69544;42.138;24.742;2023-05-10T11:50:27;23.00;35.50
80238;DHT22;69544;42.138;24.742;2023-05-10T11:52:54;23.00;35.50
80238;DHT22;69544;42.138;24.742;2023-05-10T11:55:20;23.00;35.40
80238;DHT22;69544;42.138;24.742;2023-05-10T11:57:46;23.00;35.30
80238;DHT22;69544;42.138;24.742;2023-05-10T12:00:15;23.00;35.30
80238;DHT22;69544;42.138;24.742;2023-05-10T12:02:41;23.10;35.40
80238;DHT22;69544;42.138;24.742;2023-05-10T12:05:07;23.10;35.40
80238;DHT22;69544;42.138;24.742;2023-05-10T12:07:33;23.10;36.50
80238;DHT22;69544;42.138;24.742;2023-05-10T12:10:26;23.10;35.40
80238;DHT22;69544;42.138;24.742;2023-05-10T12:12:52;23.10;35.30
80238;DHT22;69544;42.138;24.742;2023-05-10T12:15:22;23.00;35.40
80238;DHT22;69544;42.138;24.742;2023-05-10T12:17:48;23.00;35.30
80238;DHT22;69544;42.138;24.742;2023-05-10T12:22:59;23.10;35.30
80238;DHT22;69544;42.138;24.742;2023-05-10T12:25:33;23.10;35.40
80238;DHT22;69544;42.138;24.742;2023-05-10T12:28:00;23.10;35.30
80238;DHT22;69544;42.138;24.742;2023-05-10T12:30:30;23.10;35.30
80238;DHT22;69544;42.138;24.742;2023-05-10T12:33:01;23.10;35.20
80238;DHT22;69544;42.138;24.742;2023-05-10T12:35:32;23.20;35.10
80238;DHT22;69544;42.138;24.742;2023-05-10T12:37:58;23.30;35.10
80238;DHT22;69544;42.138;24.742;2023-05-10T12:40:24;23.30;35.00
80238;DHT22;69544;42.138;24.742;2023-05-10T12:42:50;23.40;34.90
80238;DHT22;69544;42.138;24.742;2023-05-10T12:45:17;23.40;34.80
80238;DHT22;69544;42.138;24.742;2023-05-10T12:47:43;23.40;34.80
80238;DHT22;69544;42.138;24.742;2023-05-10T12:50:09;23.40;34.70
80238;DHT22;69544;42.138;24.742;2023-05-10T12:52:35;23.40;34.70
80238;DHT22;69544;42.138;24.742;2023-05-10T12:55:01;23.40;34.70
80238;DHT22;69544;42.138;24.742;2023-05-10T12:57:28;23.50;34.70
80238;DHT22;69544;42.138;24.742;2023-05-10T12:59:55;23.40;34.50
80238;DHT22;69544;42.138;24.742;2023-05-10T13:02:21;23.40;34.60
80238;DHT22;69544;42.138;24.742;2023-05-10T13:04:48;23.50;34.50
80238;DHT22;69544;42.138;24.742;2023-05-10T13:07:14;23.50;34.50
80238;DHT22;69544;42.138;24.742;2023-05-10T13:09:40;23.50;34.60
80238;DHT22;69544;42.138;24.742;2023-05-10T13:12:06;23.50;35.70
80238;DHT22;69544;42.138;24.742;2023-05-10T13:14:31;23.50;34.50
80238;DHT22;69544;42.138;24.742;2023-05-10T13:16:57;23.60;34.60
80238;DHT22;69544;42.138;24.742;2023-05-10T13:19:23;23.50;34.40
80238;DHT22;69544;42.138;24.742;2023-05-10T13:21:49;23.60;34.50
80238;DHT22;69544;42.138;24.742;2023-05-10T13:24:14;23.60;34.40
80238;DHT22;69544;42.138;24.742;2023-05-10T13:26:40;23.60;34.40
80238;DHT22;69544;42.138;24.742;2023-05-10T13:29:07;23.50;34.40
80238;DHT22;69544;42.138;24.742;2023-05-10T13:31:33;23.50;34.40
80238;DHT22;69544;42.138;24.742;2023-05-10T13:33:59;23.40;34.50
80238;DHT22;69544;42.138;24.742;2023-05-10T13:36:25;23.40;34.50
80238;DHT22;69544;42.138;24.742;2023-05-10T13:38:51;23.40;34.70
80238;DHT22;69544;42.138;24.742;2023-05-10T13:41:16;23.30;34.60
80238;DHT22;69544;42.138;24.742;2023-05-10T13:43:43;23.40;34.80
80238;DHT22;69544;42.138;24.742;2023-05-10T13:46:08;23.30;34.80
80238;DHT22;69544;42.138;24.742;2023-05-10T13:48:34;23.30;34.80
80238;DHT22;69544;42.138;24.742;2023-05-10T13:51:02;23.30;34.90
80238;DHT22;69544;42.138;24.742;2023-05-10T13:53:28;23.20;34.90
80238;DHT22;69544;42.138;24.742;2023-05-10T13:55:53;23.20;34.90
80238;DHT22;69544;42.138;24.742;2023-05-10T13:58:19;23.20;35.00
80238;DHT22;69544;42.138;24.742;2023-05-10T14:00:45;23.20;35.00
80238;DHT22;69544;42.138;24.742;2023-05-10T14:03:10;23.20;35.00
80238;DHT22;69544;42.138;24.742;2023-05-10T14:05:36;23.20;35.10
80238;DHT22;69544;42.138;24.742;2023-05-10T14:08:02;23.20;35.10
80238;DHT22;69544;42.138;24.742;2023-05-10T14:10:28;23.10;35.10
80238;DHT22;69544;42.138;24.742;2023-05-10T14:12:54;23.10;35.20
80238;DHT22;69544;42.138;24.742;2023-05-10T14:15:20;23.10;35.30
80238;DHT22;69544;42.138;24.742;2023-05-10T14:17:45;23.20;35.30
80238;DHT22;69544;42.138;24.742;2023-05-10T14:20:11;23.20;35.30
80238;DHT22;69544;42.138;24.742;2023-05-10T14:22:37;23.20;35.40
80238;DHT22;69544;42.138;24.742;2023-05-10T14:25:03;23.20;35.20
80238;DHT22;69544;42.138;24.742;2023-05-10T14:27:29;23.30;35.20
80238;DHT22;69544;42.138;24.742;2023-05-10T14:29:55;23.20;35.10
80238;DHT22;69544;42.138;24.742;2023-05-10T14:32:21;23.30;35.10
80238;DHT22;69544;42.138;24.742;2023-05-10T14:34:47;23.20;35.00
80238;DHT22;69544;42.138;24.742;2023-05-10T14:37:13;23.30;35.10
80238;DHT22;69544;42.138;24.742;2023-05-10T14:39:40;23.30;35.00
80238;DHT22;69544;42.138;24.742;2023-05-10T14:42:07;23.30;35.10
80238;DHT22;69544;42.138;24.742;2023-05-10T14:44:34;23.30;35.00
80238;DHT22;69544;42.138;24.742;2023-05-10T14:46:59;23.30;35.00
80238;DHT22;69544;42.138;24.742;2023-05-10T14:49:25;23.30;35.00
80238;DHT22;69544;42.138;24.742;2023-05-10T14:51:52;23.30;35.00
80238;DHT22;69544;42.138;24.742;2023-05-10T14:54:18;23.20;35.00
80238;DHT22;69544;42.138;24.742;2023-05-10T14:56:43;23.20;35.00
80238;DHT22;69544;42.138;24.742;2023-05-10T14:59:09;23.20;35.00
80238;DHT22;69544;42.138;24.742;2023-05-10T15:01:35;23.20;35.00
80238;DHT22;69544;42.138;24.742;2023-05-10T15:04:03;23.20;35.20
80238;DHT22;69544;42.138;24.742;2023-05-10T15:06:33;23.10;35.20
80238;DHT22;69544;42.138;24.742;2023-05-10T15:09:00;23.10;35.20
80238;DHT22;69544;42.138;24.742;2023-05-10T15:11:26;23.10;35.20
80238;DHT22;69544;42.138;24.742;2023-05-10T15:13:52;23.00;35.30
80238;DHT22;69544;42.138;24.742;2023-05-10T15:16:20;23.00;35.30
80238;DHT22;69544;42.138;24.742;2023-05-10T15:18:45;23.00;35.30
80238;DHT22;69544;42.138;24.742;2023-05-10T15:21:11;23.00;35.40
80238;DHT22;69544;42.138;24.742;2023-05-10T15:23:37;23.00;35.40
80238;DHT22;69544;42.138;24.742;2023-05-10T15:26:03;23.00;35.50
80238;DHT22;69544;42.138;24.742;2023-05-10T15:28:29;22.90;35.50
80238;DHT22;69544;42.138;24.742;2023-05-10T15:30:55;22.90;35.50
80238;DHT22;69544;42.138;24.742;2023-05-10T15:33:21;22.90;35.60
80238;DHT22;69544;42.138;24.742;2023-05-10T15:35:47;22.80;35.60
80238;DHT22;69544;42.138;24.742;2023-05-10T15:38:13;22.80;35.60
80238;DHT22;69544;42.138;24.742;2023-05-10T15:40:39;22.80;35.70
80238;DHT22;69544;42.138;24.742;2023-05-10T15:43:05;22.80;35.80
80238;DHT22;69544;42.138;24.742;2023-05-10T15:45:30;22.70;35.70
80238;DHT22;69544;42.138;24.742;2023-05-10T15:47:57;22.80;35.80
80238;DHT22;69544;42.138;24.742;2023-05-10T15:50:24;22.70;35.90
80238;DHT22;69544;42.138;24.742;2023-05-10T15:52:50;22.70;35.80